Kossuth, Iowa
Current Conditions -  °F | °C
As of 9:53 PM on Wednesday 28 Jan 2015 (Local Time) from KBRL Reporting Station
Clear Clear  
Wind Chill: 33°   Ceiling: Unl
Heat Index: 41°   Visibility: 10mi
Dew Point: 33°   Wind: 15mph
Humidity: 73%   Direction: 170°S
Pressure: 29.71"   Gusts: 24mph
Location:  41.0155°N, 91.1055°W
Report Text: KBRL 290353Z AUTO 17013G21KT 10SM CLR 05/01 A2971 RMK AO2 SLP065 T00500006
Loading
Personal Weather Stations






























Interactive Weather Map New forecast layout! Learn more

10-Day Weather Forecast

Advertisements
Track Severe Weather on mobile